Time;durP1;ratioP1;P1;durP2;ratioP2;P2;SDS_P1;SDS_P2;PMS_P1;PMS_P2;Temp;Humidity;BMP_temperature;BMP_pressure;BME280_temperature;BME280_humidity;BME280_pressure;Samples;Min_cycle;Max_cycle;Signal;HPM_P1;HPM_P2
2022/12/16 00:02:18;;;;;;;134.00;85.80;;;-1.00;34.20;;;;;;5052799;28;20745;-70
2022/12/16 00:04:44;;;;;;;113.73;62.00;;;-1.00;33.10;;;;;;5053239;28;20175;-71
2022/12/16 00:07:09;;;;;;;123.03;85.37;;;-1.00;33.10;;;;;;5053002;28;20253;-71
2022/12/16 00:09:35;;;;;;;118.23;57.87;;;-1.00;33.10;;;;;;5052891;28;20799;-71
2022/12/16 00:12:00;;;;;;;117.73;80.83;;;-1.00;32.90;;;;;;5052820;28;20204;-71
2022/12/16 00:14:27;;;;;;;119.70;96.83;;;-1.00;33.10;;;;;;5053048;28;20210;-72
2022/12/16 00:16:53;;;;;;;121.35;75.50;;;-1.00;33.10;;;;;;5052800;28;20643;-71
2022/12/16 00:19:19;;;;;;;122.10;84.90;;;-1.00;33.10;;;;;;5051803;28;20189;-70
2022/12/16 00:21:44;;;;;;;105.67;62.03;;;-1.00;33.10;;;;;;5052213;28;20216;-70
2022/12/16 00:24:10;;;;;;;125.53;82.30;;;-1.10;33.00;;;;;;5053301;28;20178;-71
2022/12/16 00:26:35;;;;;;;110.10;64.93;;;-1.00;33.10;;;;;;5052747;28;20628;-71
2022/12/16 00:29:04;;;;;;;138.43;119.30;;;-0.90;33.20;;;;;;5052755;28;20231;-71
2022/12/16 00:31:30;;;;;;;181.15;149.32;;;-1.00;32.40;;;;;;5051009;28;20226;-71
2022/12/16 00:33:56;;;;;;;188.10;169.70;;;-1.10;32.20;;;;;;5052500;28;20229;-70
2022/12/16 00:36:22;;;;;;;140.70;100.07;;;-1.10;32.20;;;;;;5052502;28;20444;-72
2022/12/16 00:38:48;;;;;;;124.70;80.07;;;-1.20;32.30;;;;;;5052440;28;20206;-72
2022/12/16 00:41:13;;;;;;;118.13;80.10;;;-1.20;33.00;;;;;;5052235;28;20276;-71
2022/12/16 00:43:39;;;;;;;118.87;71.50;;;-1.30;32.90;;;;;;5052428;28;20645;-70
2022/12/16 00:46:04;;;;;;;156.37;139.63;;;-1.30;32.90;;;;;;5052495;28;20647;-71
2022/12/16 00:48:30;;;;;;;111.63;64.60;;;-1.40;33.30;;;;;;5052515;28;20266;-72
2022/12/16 00:50:55;;;;;;;107.53;67.07;;;-1.30;34.30;;;;;;5052325;28;20200;-71
2022/12/16 00:53:23;;;;;;;149.23;109.30;;;-1.30;34.30;;;;;;5050680;28;20594;-70
2022/12/16 00:55:48;;;;;;;132.32;92.10;;;-1.30;33.70;;;;;;5052461;28;20523;-70
2022/12/16 00:58:14;;;;;;;119.93;71.57;;;-1.40;34.00;;;;;;5052434;28;20192;-71
2022/12/16 01:00:40;;;;;;;257.43;232.10;;;-1.40;34.60;;;;;;5051990;28;20326;-71
2022/12/16 01:03:05;;;;;;;154.95;138.27;;;-1.50;34.20;;;;;;5052032;28;20236;-71
2022/12/16 01:05:31;;;;;;;126.67;85.73;;;-1.50;34.80;;;;;;5052402;28;20166;-72
2022/12/16 01:07:56;;;;;;;118.87;66.97;;;-1.50;35.20;;;;;;5052212;28;20532;-72
2022/12/16 01:10:23;;;;;;;111.00;60.17;;;-1.50;35.40;;;;;;5052047;28;20252;-72
2022/12/16 01:12:49;;;;;;;130.68;68.40;;;-1.50;35.70;;;;;;5051796;28;20257;-72
2022/12/16 01:15:16;;;;;;;133.13;92.90;;;-1.30;35.30;;;;;;5051998;28;20267;-71
2022/12/16 01:17:41;;;;;;;128.23;70.45;;;-1.30;34.30;;;;;;5052173;28;20442;-71
2022/12/16 01:20:08;;;;;;;135.33;103.57;;;-1.20;33.40;;;;;;5050526;28;20229;-70
2022/12/16 01:22:34;;;;;;;129.10;87.55;;;-1.30;32.90;;;;;;5051707;28;20295;-72
2022/12/16 01:25:00;;;;;;;120.60;70.10;;;-1.30;33.30;;;;;;5051941;28;20173;-71
2022/12/16 01:27:26;;;;;;;124.40;91.10;;;-1.30;34.00;;;;;;5051889;28;20226;-71
2022/12/16 01:29:52;;;;;;;117.10;80.30;;;-1.30;33.70;;;;;;5051787;28;20175;-71
2022/12/16 01:32:18;;;;;;;116.13;64.77;;;-1.20;34.50;;;;;;5051539;28;20177;-72
2022/12/16 01:34:48;;;;;;;122.03;73.83;;;-1.10;33.00;;;;;;5051876;28;20211;-71
2022/12/16 01:37:13;;;;;;;138.38;95.32;;;-1.10;33.00;;;;;;5051762;28;20421;-71
2022/12/16 01:39:39;;;;;;;258.53;229.80;;;-1.20;33.00;;;;;;5051751;28;20197;-71
2022/12/16 01:42:11;;;;;;;128.80;90.17;;;-1.30;32.90;;;;;;5051163;28;20215;-71
2022/12/16 01:44:36;;;;;;;145.88;108.60;;;-1.30;32.90;;;;;;5051773;28;20227;-71
2022/12/16 01:47:05;;;;;;;124.23;87.93;;;-1.30;32.90;;;;;;5051770;28;20174;-70
2022/12/16 01:49:39;;;;;;;128.45;75.65;;;-1.20;33.00;;;;;;5051721;28;20172;-70
2022/12/16 01:52:08;;;;;;;118.40;66.43;;;-1.30;33.10;;;;;;5051255;28;20252;-70
2022/12/16 01:54:42;;;;;;;117.68;72.65;;;-1.20;33.00;;;;;;5051447;28;20183;-70
2022/12/16 01:57:23;;;;;;;112.93;65.78;;;-1.10;33.70;;;;;;5051533;28;20262;-70
2022/12/16 01:59:53;;;;;;;115.55;66.40;;;-1.10;33.00;;;;;;5051455;28;20189;-71
2022/12/16 02:02:19;;;;;;;125.70;84.10;;;-1.10;32.20;;;;;;5051562;28;20628;-71
2022/12/16 02:07:28;;;;;;;124.18;73.88;;;-1.30;31.90;;;;;;5051717;28;20224;-71
2022/12/16 02:09:55;;;;;;;120.60;74.10;;;-1.20;33.00;;;;;;5051419;28;20208;-71
2022/12/16 02:12:34;;;;;;;151.38;122.50;;;-1.20;33.00;;;;;;5051523;28;20181;-71
2022/12/16 02:15:07;;;;;;;125.45;64.25;;;-1.30;32.60;;;;;;5055495;28;20202;-71
2022/12/16 02:17:48;;;;;;;128.65;80.72;;;-1.30;32.90;;;;;;5055789;28;20178;-70
2022/12/16 02:20:38;;;;;;;131.48;76.53;;;-1.30;32.90;;;;;;5055527;28;20197;-70
2022/12/16 02:23:21;;;;;;;127.82;62.47;;;-1.20;33.00;;;;;;5054950;28;20260;-71
2022/12/16 02:26:40;;;;;;;128.13;101.32;;;-1.20;33.00;;;;;;5055218;28;20169;-71
2022/12/16 02:29:33;;;;;;;129.40;80.78;;;-1.30;32.90;;;;;;5052909;28;20182;-70
2022/12/16 02:31:59;;;;;;;129.35;82.47;;;-1.40;32.80;;;;;;5054625;28;20638;-70
2022/12/16 02:34:52;;;;;;;247.67;224.40;;;-1.50;32.70;;;;;;5054901;28;20218;-70
2022/12/16 02:37:32;;;;;;;130.57;95.97;;;-1.50;32.80;;;;;;5054977;28;20184;-71
2022/12/16 02:40:09;;;;;;;132.27;97.78;;;-1.60;33.30;;;;;;5054758;28;20545;-71
2022/12/16 02:42:39;;;;;;;136.68;82.18;;;-1.60;33.20;;;;;;5054433;28;20212;-71
2022/12/16 02:45:14;;;;;;;125.40;68.43;;;-1.60;33.70;;;;;;5055182;28;20171;-71
2022/12/16 02:47:39;;;;;;;117.07;70.13;;;-1.60;33.30;;;;;;5053481;28;20184;-71
2022/12/16 02:50:17;;;;;;;122.40;71.83;;;-1.60;34.10;;;;;;5054428;28;20654;-71
2022/12/16 02:52:43;;;;;;;126.63;67.28;;;-1.70;33.60;;;;;;5054359;28;20566;-71
2022/12/16 02:55:09;;;;;;;120.10;60.27;;;-1.60;34.70;;;;;;5054462;28;20184;-71
2022/12/16 02:57:44;;;;;;;139.00;92.93;;;-1.60;34.40;;;;;;5054523;28;20415;-71
2022/12/16 03:00:13;;;;;;;125.75;77.18;;;-1.70;34.30;;;;;;5054284;28;20443;-71
2022/12/16 03:02:58;;;;;;;211.80;183.93;;;-1.60;34.30;;;;;;5053936;28;20207;-71
2022/12/16 03:05:30;;;;;;;129.48;73.35;;;-1.70;34.90;;;;;;5053083;28;20179;-71
2022/12/16 03:07:59;;;;;;;158.77;128.65;;;-1.60;35.40;;;;;;5054114;28;20549;-70
2022/12/16 03:10:29;;;;;;;111.38;60.25;;;-1.60;34.30;;;;;;5054037;28;20653;-70
2022/12/16 03:12:58;;;;;;;124.20;62.90;;;-1.60;35.20;;;;;;5053843;28;20489;-70
2022/12/16 03:15:28;;;;;;;121.18;65.85;;;-1.60;35.40;;;;;;5054141;28;20679;-71
2022/12/16 03:17:56;;;;;;;115.15;61.13;;;-1.50;34.70;;;;;;5053965;28;20184;-70
2022/12/16 03:20:27;;;;;;;114.80;65.70;;;-1.50;34.40;;;;;;5053906;28;20282;-70
2022/12/16 03:22:56;;;;;;;133.80;79.45;;;-1.50;34.20;;;;;;5053633;28;20201;-70
2022/12/16 03:25:23;;;;;;;117.85;63.72;;;-1.50;34.30;;;;;;5053340;28;20205;-70
2022/12/16 03:27:58;;;;;;;135.45;71.78;;;-1.50;33.80;;;;;;5053986;28;20184;-71
2022/12/16 03:30:44;;;;;;;113.93;63.13;;;-1.50;33.80;;;;;;5053540;28;20212;-70
2022/12/16 03:33:27;;;;;;;121.30;66.93;;;-1.60;35.20;;;;;;5053484;28;20189;-70
2022/12/16 03:36:05;;;;;;;116.35;60.38;;;-1.40;35.80;;;;;;5053645;28;20546;-70
2022/12/16 03:38:32;;;;;;;118.63;66.25;;;-1.40;35.10;;;;;;5053802;28;20183;-70
2022/12/16 03:40:59;;;;;;;117.57;67.25;;;-1.40;34.20;;;;;;5052191;28;20629;-69
2022/12/16 03:43:26;;;;;;;116.65;66.22;;;-1.40;34.50;;;;;;5052997;28;20200;-72
2022/12/16 03:45:55;;;;;;;125.25;80.35;;;-1.30;34.60;;;;;;5053498;28;20180;-73
2022/12/16 03:48:23;;;;;;;131.10;80.57;;;-1.20;33.00;;;;;;5052379;28;20725;-72
2022/12/16 03:50:49;;;;;;;118.32;72.88;;;-1.20;33.70;;;;;;5053404;28;20270;-72
2022/12/16 03:53:15;;;;;;;116.70;63.77;;;-1.20;33.00;;;;;;5051745;28;20185;-72
2022/12/16 03:55:41;;;;;;;119.97;67.73;;;-1.20;33.00;;;;;;5053327;28;20455;-72
2022/12/16 03:58:06;;;;;;;119.93;68.07;;;-1.10;33.00;;;;;;5053207;28;20761;-72
2022/12/16 04:00:32;;;;;;;118.90;63.40;;;-1.30;32.50;;;;;;5053014;28;20197;-72
2022/12/16 04:02:58;;;;;;;110.23;54.87;;;-1.30;32.90;;;;;;5052788;28;20209;-72
2022/12/16 04:05:23;;;;;;;132.77;97.70;;;-1.30;32.90;;;;;;5053038;28;20174;-73
2022/12/16 04:07:49;;;;;;;118.17;69.73;;;-1.30;32.90;;;;;;5053341;28;20182;-72
2022/12/16 04:10:14;;;;;;;118.90;72.73;;;-1.40;32.80;;;;;;5053063;28;20269;-72
2022/12/16 04:29:22;;;;;;;114.28;63.28;;;-1.10;32.10;;;;;;5052987;28;20161;-72
2022/12/16 04:31:48;;;;;;;121.60;61.67;;;-1.10;31.90;;;;;;5052150;28;20216;-72
2022/12/16 04:34:27;;;;;;;138.55;101.68;;;-1.10;31.40;;;;;;5052599;28;20771;-71
